sensor_id;sensor_type;location;lat;lon;timestamp;temperature;humidity
53776;DHT22;44276;49.534;6.378;2023-02-01T00:00:13;6.10;99.90
53776;DHT22;44276;49.534;6.378;2023-02-01T00:02:47;6.10;99.90
53776;DHT22;44276;49.534;6.378;2023-02-01T00:05:31;6.10;99.90
53776;DHT22;44276;49.534;6.378;2023-02-01T00:08:03;6.10;99.90
53776;DHT22;44276;49.534;6.378;2023-02-01T00:10:34;6.10;99.90
53776;DHT22;44276;49.534;6.378;2023-02-01T00:13:04;6.10;99.90
53776;DHT22;44276;49.534;6.378;2023-02-01T00:15:32;6.10;99.90
53776;DHT22;44276;49.534;6.378;2023-02-01T00:18:01;6.10;99.90
53776;DHT22;44276;49.534;6.378;2023-02-01T00:20:29;6.00;99.90
53776;DHT22;44276;49.534;6.378;2023-02-01T00:22:57;6.00;99.90
53776;DHT22;44276;49.534;6.378;2023-02-01T00:25:25;6.00;99.90
53776;DHT22;44276;49.534;6.378;2023-02-01T00:27:53;6.00;99.90
53776;DHT22;44276;49.534;6.378;2023-02-01T00:30:24;6.00;99.90
53776;DHT22;44276;49.534;6.378;2023-02-01T00:32:53;6.00;99.90
53776;DHT22;44276;49.534;6.378;2023-02-01T00:35:21;6.10;99.90
53776;DHT22;44276;49.534;6.378;2023-02-01T00:37:49;6.10;99.90
53776;DHT22;44276;49.534;6.378;2023-02-01T00:40:18;6.10;99.90
53776;DHT22;44276;49.534;6.378;2023-02-01T00:42:47;6.00;99.90
53776;DHT22;44276;49.534;6.378;2023-02-01T00:45:15;6.10;99.90
53776;DHT22;44276;49.534;6.378;2023-02-01T00:47:45;6.00;99.90
53776;DHT22;44276;49.534;6.378;2023-02-01T00:50:13;6.00;99.90
53776;DHT22;44276;49.534;6.378;2023-02-01T00:52:42;6.10;99.90
53776;DHT22;44276;49.534;6.378;2023-02-01T00:55:10;6.10;99.90
53776;DHT22;44276;49.534;6.378;2023-02-01T00:57:38;6.10;99.90
53776;DHT22;44276;49.534;6.378;2023-02-01T01:00:08;6.10;99.90
53776;DHT22;44276;49.534;6.378;2023-02-01T01:02:37;6.10;99.90
53776;DHT22;44276;49.534;6.378;2023-02-01T01:05:07;6.10;99.90
53776;DHT22;44276;49.534;6.378;2023-02-01T01:07:35;6.10;99.90
53776;DHT22;44276;49.534;6.378;2023-02-01T01:10:05;6.10;99.90
53776;DHT22;44276;49.534;6.378;2023-02-01T01:12:33;6.10;99.90
53776;DHT22;44276;49.534;6.378;2023-02-01T01:15:02;6.10;99.90
53776;DHT22;44276;49.534;6.378;2023-02-01T01:17:31;6.10;99.90
53776;DHT22;44276;49.534;6.378;2023-02-01T01:19:59;6.00;99.90
53776;DHT22;44276;49.534;6.378;2023-02-01T01:22:29;6.00;99.90
53776;DHT22;44276;49.534;6.378;2023-02-01T01:24:57;6.00;99.90
53776;DHT22;44276;49.534;6.378;2023-02-01T01:27:25;5.90;99.90
53776;DHT22;44276;49.534;6.378;2023-02-01T01:29:53;6.00;99.90
53776;DHT22;44276;49.534;6.378;2023-02-01T01:32:21;6.00;99.90
53776;DHT22;44276;49.534;6.378;2023-02-01T01:34:49;6.00;99.90
53776;DHT22;44276;49.534;6.378;2023-02-01T01:37:17;6.00;99.90
53776;DHT22;44276;49.534;6.378;2023-02-01T01:39:46;6.00;99.90
53776;DHT22;44276;49.534;6.378;2023-02-01T01:42:14;6.00;99.90
53776;DHT22;44276;49.534;6.378;2023-02-01T01:45:00;6.00;99.90
53776;DHT22;44276;49.534;6.378;2023-02-01T01:47:34;6.00;99.90
53776;DHT22;44276;49.534;6.378;2023-02-01T01:50:06;6.00;99.90
53776;DHT22;44276;49.534;6.378;2023-02-01T01:52:37;6.00;99.90
53776;DHT22;44276;49.534;6.378;2023-02-01T01:55:10;6.00;99.90
53776;DHT22;44276;49.534;6.378;2023-02-01T01:57:42;6.00;99.90
53776;DHT22;44276;49.534;6.378;2023-02-01T02:00:16;6.00;99.90
53776;DHT22;44276;49.534;6.378;2023-02-01T02:02:52;6.00;99.90
53776;DHT22;44276;49.534;6.378;2023-02-01T02:05:22;6.00;99.90
53776;DHT22;44276;49.534;6.378;2023-02-01T02:07:53;6.00;99.90
53776;DHT22;44276;49.534;6.378;2023-02-01T02:10:27;5.90;99.90
53776;DHT22;44276;49.534;6.378;2023-02-01T02:13:10;5.90;99.90
53776;DHT22;44276;49.534;6.378;2023-02-01T02:15:43;5.90;99.90
53776;DHT22;44276;49.534;6.378;2023-02-01T02:18:21;5.90;99.90
53776;DHT22;44276;49.534;6.378;2023-02-01T02:21:13;5.90;99.90
53776;DHT22;44276;49.534;6.378;2023-02-01T02:24:23;5.80;99.90
53776;DHT22;44276;49.534;6.378;2023-02-01T02:27:22;5.80;99.90
53776;DHT22;44276;49.534;6.378;2023-02-01T02:30:30;5.80;99.90
53776;DHT22;44276;49.534;6.378;2023-02-01T02:36:19;5.80;99.90
53776;DHT22;44276;49.534;6.378;2023-02-01T02:39:05;5.80;99.90
53776;DHT22;44276;49.534;6.378;2023-02-01T02:41:46;5.80;99.90
53776;DHT22;44276;49.534;6.378;2023-02-01T02:44:46;5.80;99.90
53776;DHT22;44276;49.534;6.378;2023-02-01T02:47:44;5.80;99.90
53776;DHT22;44276;49.534;6.378;2023-02-01T02:50:23;5.80;99.90
53776;DHT22;44276;49.534;6.378;2023-02-01T02:53:14;5.90;99.90
53776;DHT22;44276;49.534;6.378;2023-02-01T02:56:04;5.90;99.90
53776;DHT22;44276;49.534;6.378;2023-02-01T02:58:53;5.90;99.90
53776;DHT22;44276;49.534;6.378;2023-02-01T03:01:40;5.90;99.90
53776;DHT22;44276;49.534;6.378;2023-02-01T03:04:26;6.00;99.90
53776;DHT22;44276;49.534;6.378;2023-02-01T03:06:56;6.00;99.90
53776;DHT22;44276;49.534;6.378;2023-02-01T03:09:28;6.00;99.90
53776;DHT22;44276;49.534;6.378;2023-02-01T03:12:03;6.00;99.90
53776;DHT22;44276;49.534;6.378;2023-02-01T03:14:57;5.90;99.90
53776;DHT22;44276;49.534;6.378;2023-02-01T03:17:33;5.90;99.90
53776;DHT22;44276;49.534;6.378;2023-02-01T03:20:08;5.90;99.90
53776;DHT22;44276;49.534;6.378;2023-02-01T03:22:43;5.90;99.90
53776;DHT22;44276;49.534;6.378;2023-02-01T03:25:18;5.90;99.90
53776;DHT22;44276;49.534;6.378;2023-02-01T03:27:55;5.80;99.90
53776;DHT22;44276;49.534;6.378;2023-02-01T03:30:29;5.90;99.90
53776;DHT22;44276;49.534;6.378;2023-02-01T03:33:05;5.80;99.90
53776;DHT22;44276;49.534;6.378;2023-02-01T03:35:45;5.80;99.90
53776;DHT22;44276;49.534;6.378;2023-02-01T03:38:21;5.80;99.90
53776;DHT22;44276;49.534;6.378;2023-02-01T03:40:58;5.80;99.90
53776;DHT22;44276;49.534;6.378;2023-02-01T03:43:38;5.80;99.90
53776;DHT22;44276;49.534;6.378;2023-02-01T03:46:19;5.80;99.90
53776;DHT22;44276;49.534;6.378;2023-02-01T03:48:53;5.80;99.90
53776;DHT22;44276;49.534;6.378;2023-02-01T03:51:24;5.80;99.90
53776;DHT22;44276;49.534;6.378;2023-02-01T03:53:55;5.80;99.90
53776;DHT22;44276;49.534;6.378;2023-02-01T03:56:25;5.80;99.90
53776;DHT22;44276;49.534;6.378;2023-02-01T03:58:55;5.80;99.90
53776;DHT22;44276;49.534;6.378;2023-02-01T04:01:27;5.80;99.90
53776;DHT22;44276;49.534;6.378;2023-02-01T04:03:57;5.70;99.90
53776;DHT22;44276;49.534;6.378;2023-02-01T04:06:26;5.70;99.90
53776;DHT22;44276;49.534;6.378;2023-02-01T04:08:55;5.70;99.90
53776;DHT22;44276;49.534;6.378;2023-02-01T04:11:23;5.70;99.90
53776;DHT22;44276;49.534;6.378;2023-02-01T04:13:51;5.70;99.90
53776;DHT22;44276;49.534;6.378;2023-02-01T04:16:19;5.80;99.90
53776;DHT22;44276;49.534;6.378;2023-02-01T04:18:47;5.80;99.90
53776;DHT22;44276;49.534;6.378;2023-02-01T04:21:16;5.90;99.90
53776;DHT22;44276;49.534;6.378;2023-02-01T04:23:45;5.90;99.90
53776;DHT22;44276;49.534;6.378;2023-02-01T04:26:14;5.80;99.90
53776;DHT22;44276;49.534;6.378;2023-02-01T04:28:42;5.90;99.90
53776;DHT22;44276;49.534;6.378;2023-02-01T04:31:10;5.90;99.90
53776;DHT22;44276;49.534;6.378;2023-02-01T04:33:39;5.90;99.90
53776;DHT22;44276;49.534;6.378;2023-02-01T04:36:07;5.90;99.90
53776;DHT22;44276;49.534;6.378;2023-02-01T04:38:35;6.10;99.90
53776;DHT22;44276;49.534;6.378;2023-02-01T04:41:04;6.10;99.90
53776;DHT22;44276;49.534;6.378;2023-02-01T04:43:33;6.20;99.90
53776;DHT22;44276;49.534;6.378;2023-02-01T04:46:01;6.20;99.90
53776;DHT22;44276;49.534;6.378;2023-02-01T04:48:29;6.20;99.90
53776;DHT22;44276;49.534;6.378;2023-02-01T04:50:57;6.20;99.90
53776;DHT22;44276;49.534;6.378;2023-02-01T04:53:25;6.10;99.90
53776;DHT22;44276;49.534;6.378;2023-02-01T04:55:53;6.10;99.90
53776;DHT22;44276;49.534;6.378;2023-02-01T04:58:22;6.20;99.90
53776;DHT22;44276;49.534;6.378;2023-02-01T05:00:51;6.10;99.90
53776;DHT22;44276;49.534;6.378;2023-02-01T05:03:19;6.10;99.90
53776;DHT22;44276;49.534;6.378;2023-02-01T05:05:47;6.00;99.90
53776;DHT22;44276;49.534;6.378;2023-02-01T05:08:16;6.10;99.90
53776;DHT22;44276;49.534;6.378;2023-02-01T05:10:44;6.20;99.90
53776;DHT22;44276;49.534;6.378;2023-02-01T05:13:13;6.20;99.90
53776;DHT22;44276;49.534;6.378;2023-02-01T05:16:00;6.20;99.90
53776;DHT22;44276;49.534;6.378;2023-02-01T05:18:28;6.20;99.90
53776;DHT22;44276;49.534;6.378;2023-02-01T05:20:56;6.20;99.90
53776;DHT22;44276;49.534;6.378;2023-02-01T05:23:24;6.20;99.90
53776;DHT22;44276;49.534;6.378;2023-02-01T05:25:52;6.20;99.90
53776;DHT22;44276;49.534;6.378;2023-02-01T05:28:26;6.20;99.90
53776;DHT22;44276;49.534;6.378;2023-02-01T05:30:54;6.30;99.90
53776;DHT22;44276;49.534;6.378;2023-02-01T05:33:24;6.30;99.90
53776;DHT22;44276;49.534;6.378;2023-02-01T05:35:52;6.30;99.90
53776;DHT22;44276;49.534;6.378;2023-02-01T05:38:20;6.40;99.90
53776;DHT22;44276;49.534;6.378;2023-02-01T05:40:48;6.40;99.90
53776;DHT22;44276;49.534;6.378;2023-02-01T05:43:16;6.40;99.90
53776;DHT22;44276;49.534;6.378;2023-02-01T05:45:44;6.50;99.90
53776;DHT22;44276;49.534;6.378;2023-02-01T05:48:13;6.50;99.90
53776;DHT22;44276;49.534;6.378;2023-02-01T05:50:43;6.40;99.90
53776;DHT22;44276;49.534;6.378;2023-02-01T05:53:11;6.50;99.90
53776;DHT22;44276;49.534;6.378;2023-02-01T05:55:40;6.40;99.90
53776;DHT22;44276;49.534;6.378;2023-02-01T05:58:09;6.40;99.90
53776;DHT22;44276;49.534;6.378;2023-02-01T06:00:39;6.40;99.90
53776;DHT22;44276;49.534;6.378;2023-02-01T06:03:07;6.30;99.90
53776;DHT22;44276;49.534;6.378;2023-02-01T06:05:35;6.20;99.90
53776;DHT22;44276;49.534;6.378;2023-02-01T06:08:05;6.20;99.90
53776;DHT22;44276;49.534;6.378;2023-02-01T06:10:34;6.20;99.90
53776;DHT22;44276;49.534;6.378;2023-02-01T06:13:03;6.20;99.90
53776;DHT22;44276;49.534;6.378;2023-02-01T06:15:31;6.30;99.90
53776;DHT22;44276;49.534;6.378;2023-02-01T06:18:00;6.20;99.90
53776;DHT22;44276;49.534;6.378;2023-02-01T06:20:28;6.20;99.90
53776;DHT22;44276;49.534;6.378;2023-02-01T06:22:57;6.20;99.90
53776;DHT22;44276;49.534;6.378;2023-02-01T06:25:26;6.20;99.90
53776;DHT22;44276;49.534;6.378;2023-02-01T06:27:55;6.20;99.90
53776;DHT22;44276;49.534;6.378;2023-02-01T06:30:23;6.20;99.90
53776;DHT22;44276;49.534;6.378;2023-02-01T06:32:53;6.20;99.90
53776;DHT22;44276;49.534;6.378;2023-02-01T06:35:21;6.20;99.90
53776;DHT22;44276;49.534;6.378;2023-02-01T06:37:50;6.30;99.90
53776;DHT22;44276;49.534;6.378;2023-02-01T06:40:33;6.30;99.90
53776;DHT22;44276;49.534;6.378;2023-02-01T06:43:03;6.30;99.90
53776;DHT22;44276;49.534;6.378;2023-02-01T06:45:31;6.10;99.90
53776;DHT22;44276;49.534;6.378;2023-02-01T06:47:59;6.00;99.90
53776;DHT22;44276;49.534;6.378;2023-02-01T06:50:28;5.90;99.90
53776;DHT22;44276;49.534;6.378;2023-02-01T06:52:56;5.80;99.90
53776;DHT22;44276;49.534;6.378;2023-02-01T06:55:24;5.70;99.90
53776;DHT22;44276;49.534;6.378;2023-02-01T06:57:54;5.60;99.90
53776;DHT22;44276;49.534;6.378;2023-02-01T07:00:24;5.50;99.90
53776;DHT22;44276;49.534;6.378;2023-02-01T07:02:53;5.40;99.90
53776;DHT22;44276;49.534;6.378;2023-02-01T07:05:21;5.30;99.90
53776;DHT22;44276;49.534;6.378;2023-02-01T07:07:49;5.30;99.90
53776;DHT22;44276;49.534;6.378;2023-02-01T07:10:17;5.20;99.90
53776;DHT22;44276;49.534;6.378;2023-02-01T07:12:46;5.10;99.90
53776;DHT22;44276;49.534;6.378;2023-02-01T07:15:16;5.20;99.90
53776;DHT22;44276;49.534;6.378;2023-02-01T07:17:44;5.30;99.90
53776;DHT22;44276;49.534;6.378;2023-02-01T07:20:14;5.20;99.90
53776;DHT22;44276;49.534;6.378;2023-02-01T07:22:42;5.20;99.90
53776;DHT22;44276;49.534;6.378;2023-02-01T07:25:11;5.20;99.90
53776;DHT22;44276;49.534;6.378;2023-02-01T07:27:39;5.30;99.90
53776;DHT22;44276;49.534;6.378;2023-02-01T07:30:10;5.20;99.90
53776;DHT22;44276;49.534;6.378;2023-02-01T07:32:40;5.20;99.90
53776;DHT22;44276;49.534;6.378;2023-02-01T07:35:08;5.10;99.90
53776;DHT22;44276;49.534;6.378;2023-02-01T07:37:37;5.10;99.90
53776;DHT22;44276;49.534;6.378;2023-02-01T07:40:06;5.10;99.90
53776;DHT22;44276;49.534;6.378;2023-02-01T07:42:35;5.10;99.90
53776;DHT22;44276;49.534;6.378;2023-02-01T07:45:04;5.30;99.90
53776;DHT22;44276;49.534;6.378;2023-02-01T07:47:48;5.40;99.90
53776;DHT22;44276;49.534;6.378;2023-02-01T07:50:19;5.40;99.90
53776;DHT22;44276;49.534;6.378;2023-02-01T07:52:48;5.50;99.90
53776;DHT22;44276;49.534;6.378;2023-02-01T07:55:16;5.50;99.90
53776;DHT22;44276;49.534;6.378;2023-02-01T07:57:44;5.40;99.90
53776;DHT22;44276;49.534;6.378;2023-02-01T08:00:14;5.40;99.90
53776;DHT22;44276;49.534;6.378;2023-02-01T08:03:13;5.50;99.90
53776;DHT22;44276;49.534;6.378;2023-02-01T08:05:43;5.50;99.90
53776;DHT22;44276;49.534;6.378;2023-02-01T08:08:11;5.50;99.90
53776;DHT22;44276;49.534;6.378;2023-02-01T08:10:40;5.50;99.90
53776;DHT22;44276;49.534;6.378;2023-02-01T08:13:08;5.60;99.90
53776;DHT22;44276;49.534;6.378;2023-02-01T08:15:36;5.60;99.90
53776;DHT22;44276;49.534;6.378;2023-02-01T08:18:05;5.60;99.90
53776;DHT22;44276;49.534;6.378;2023-02-01T08:20:34;5.70;99.90
53776;DHT22;44276;49.534;6.378;2023-02-01T08:23:08;5.60;99.90
53776;DHT22;44276;49.534;6.378;2023-02-01T08:25:36;5.60;99.90
53776;DHT22;44276;49.534;6.378;2023-02-01T08:28:05;5.70;99.90
53776;DHT22;44276;49.534;6.378;2023-02-01T08:30:35;5.70;99.90
53776;DHT22;44276;49.534;6.378;2023-02-01T08:33:05;5.60;99.90
53776;DHT22;44276;49.534;6.378;2023-02-01T08:35:36;5.60;99.90
53776;DHT22;44276;49.534;6.378;2023-02-01T08:38:09;5.50;99.90
53776;DHT22;44276;49.534;6.378;2023-02-01T08:40:38;5.40;99.90
53776;DHT22;44276;49.534;6.378;2023-02-01T08:43:07;5.50;99.90
53776;DHT22;44276;49.534;6.378;2023-02-01T08:45:36;5.50;99.90
53776;DHT22;44276;49.534;6.378;2023-02-01T08:48:05;5.50;99.90
53776;DHT22;44276;49.534;6.378;2023-02-01T08:50:34;5.60;99.90
53776;DHT22;44276;49.534;6.378;2023-02-01T08:53:02;5.70;99.90
53776;DHT22;44276;49.534;6.378;2023-02-01T08:55:31;5.80;99.90
53776;DHT22;44276;49.534;6.378;2023-02-01T08:57:59;5.80;99.90
53776;DHT22;44276;49.534;6.378;2023-02-01T09:00:27;5.90;99.90
53776;DHT22;44276;49.534;6.378;2023-02-01T09:02:55;5.90;99.90
53776;DHT22;44276;49.534;6.378;2023-02-01T09:05:23;6.00;99.90
53776;DHT22;44276;49.534;6.378;2023-02-01T09:08:02;6.20;99.90
53776;DHT22;44276;49.534;6.378;2023-02-01T09:10:30;6.30;99.90
53776;DHT22;44276;49.534;6.378;2023-02-01T09:13:01;6.40;99.90
53776;DHT22;44276;49.534;6.378;2023-02-01T09:15:30;6.50;96.80
53776;DHT22;44276;49.534;6.378;2023-02-01T09:17:58;6.50;99.90
53776;DHT22;44276;49.534;6.378;2023-02-01T09:20:27;6.50;99.90
53776;DHT22;44276;49.534;6.378;2023-02-01T09:22:56;6.50;99.90
53776;DHT22;44276;49.534;6.378;2023-02-01T09:25:26;6.60;97.50
53776;DHT22;44276;49.534;6.378;2023-02-01T09:27:54;6.50;99.90
53776;DHT22;44276;49.534;6.378;2023-02-01T09:30:23;6.60;99.90
53776;DHT22;44276;49.534;6.378;2023-02-01T09:32:51;6.80;99.30
53776;DHT22;44276;49.534;6.378;2023-02-01T09:35:19;6.90;88.00
53776;DHT22;44276;49.534;6.378;2023-02-01T09:37:48;7.10;90.10
53776;DHT22;44276;49.534;6.378;2023-02-01T09:40:16;7.30;77.50
53776;DHT22;44276;49.534;6.378;2023-02-01T09:43:16;7.40;71.50
53776;DHT22;44276;49.534;6.378;2023-02-01T09:45:55;7.50;68.00
53776;DHT22;44276;49.534;6.378;2023-02-01T09:48:34;7.50;68.30
53776;DHT22;44276;49.534;6.378;2023-02-01T09:51:12;7.40;66.70
53776;DHT22;44276;49.534;6.378;2023-02-01T09:53:47;7.40;70.10
53776;DHT22;44276;49.534;6.378;2023-02-01T09:56:23;7.50;64.40
53776;DHT22;44276;49.534;6.378;2023-02-01T09:59:01;7.50;68.80
53776;DHT22;44276;49.534;6.378;2023-02-01T10:01:37;7.30;72.90
53776;DHT22;44276;49.534;6.378;2023-02-01T10:04:08;7.20;82.20
53776;DHT22;44276;49.534;6.378;2023-02-01T10:06:49;7.10;77.70
53776;DHT22;44276;49.534;6.378;2023-02-01T10:09:52;7.10;73.40
53776;DHT22;44276;49.534;6.378;2023-02-01T10:12:49;7.00;80.70
53776;DHT22;44276;49.534;6.378;2023-02-01T10:15:53;7.10;73.10
53776;DHT22;44276;49.534;6.378;2023-02-01T10:18:43;7.10;69.60
53776;DHT22;44276;49.534;6.378;2023-02-01T10:21:37;7.10;70.50
53776;DHT22;44276;49.534;6.378;2023-02-01T10:24:28;7.20;70.50
53776;DHT22;44276;49.534;6.378;2023-02-01T10:27:14;7.30;67.10
53776;DHT22;44276;49.534;6.378;2023-02-01T10:29:48;7.20;67.40
53776;DHT22;44276;49.534;6.378;2023-02-01T10:32:27;7.30;70.60
53776;DHT22;44276;49.534;6.378;2023-02-01T10:34:59;7.50;63.90
53776;DHT22;44276;49.534;6.378;2023-02-01T10:37:30;7.50;63.30
53776;DHT22;44276;49.534;6.378;2023-02-01T10:40:02;7.50;65.30
53776;DHT22;44276;49.534;6.378;2023-02-01T10:42:40;7.60;60.60
53776;DHT22;44276;49.534;6.378;2023-02-01T10:45:13;7.60;64.10
53776;DHT22;44276;49.534;6.378;2023-02-01T10:47:47;7.60;58.50
53776;DHT22;44276;49.534;6.378;2023-02-01T10:50:23;7.70;63.40
53776;DHT22;44276;49.534;6.378;2023-02-01T10:53:04;7.70;57.30
53776;DHT22;44276;49.534;6.378;2023-02-01T10:55:40;7.90;61.00
53776;DHT22;44276;49.534;6.378;2023-02-01T10:58:16;8.10;54.30
53776;DHT22;44276;49.534;6.378;2023-02-01T11:00:48;8.10;53.10
53776;DHT22;44276;49.534;6.378;2023-02-01T11:03:38;8.00;55.40
53776;DHT22;44276;49.534;6.378;2023-02-01T11:06:09;7.90;53.90
53776;DHT22;44276;49.534;6.378;2023-02-01T11:08:48;7.90;56.50
53776;DHT22;44276;49.534;6.378;2023-02-01T11:11:18;7.80;54.60
53776;DHT22;44276;49.534;6.378;2023-02-01T11:13:53;7.70;60.30
53776;DHT22;44276;49.534;6.378;2023-02-01T11:16:30;7.80;56.70
53776;DHT22;44276;49.534;6.378;2023-02-01T11:19:04;7.90;55.50
53776;DHT22;44276;49.534;6.378;2023-02-01T11:21:34;8.00;53.80
53776;DHT22;44276;49.534;6.378;2023-02-01T11:24:06;8.20;52.10
53776;DHT22;44276;49.534;6.378;2023-02-01T11:26:45;8.30;50.20
53776;DHT22;44276;49.534;6.378;2023-02-01T11:29:17;8.10;54.20
53776;DHT22;44276;49.534;6.378;2023-02-01T11:31:50;7.90;55.90
53776;DHT22;44276;49.534;6.378;2023-02-01T11:34:22;7.70;55.10
53776;DHT22;44276;49.534;6.378;2023-02-01T11:36:57;7.50;56.10
53776;DHT22;44276;49.534;6.378;2023-02-01T11:39:31;7.60;57.60
53776;DHT22;44276;49.534;6.378;2023-02-01T11:42:04;7.70;57.80
53776;DHT22;44276;49.534;6.378;2023-02-01T11:44:37;7.60;57.00
53776;DHT22;44276;49.534;6.378;2023-02-01T11:47:19;7.60;54.50
53776;DHT22;44276;49.534;6.378;2023-02-01T11:49:51;7.70;52.70
53776;DHT22;44276;49.534;6.378;2023-02-01T11:52:35;7.80;58.10
53776;DHT22;44276;49.534;6.378;2023-02-01T11:55:26;7.90;55.80
53776;DHT22;44276;49.534;6.378;2023-02-01T11:58:15;7.90;55.70
53776;DHT22;44276;49.534;6.378;2023-02-01T12:01:02;8.00;52.90
53776;DHT22;44276;49.534;6.378;2023-02-01T12:04:07;8.00;56.70
53776;DHT22;44276;49.534;6.378;2023-02-01T12:06:51;7.90;52.10
53776;DHT22;44276;49.534;6.378;2023-02-01T12:09:37;7.80;53.20
53776;DHT22;44276;49.534;6.378;2023-02-01T12:12:21;7.70;57.40
53776;DHT22;44276;49.534;6.378;2023-02-01T12:15:15;7.70;58.30
53776;DHT22;44276;49.534;6.378;2023-02-01T12:18:09;7.70;54.90
53776;DHT22;44276;49.534;6.378;2023-02-01T12:21:14;7.90;52.50
53776;DHT22;44276;49.534;6.378;2023-02-01T12:24:04;8.20;52.40
53776;DHT22;44276;49.534;6.378;2023-02-01T12:27:05;8.20;49.80
53776;DHT22;44276;49.534;6.378;2023-02-01T12:30:13;8.20;50.50
53776;DHT22;44276;49.534;6.378;2023-02-01T12:33:25;8.30;52.10
53776;DHT22;44276;49.534;6.378;2023-02-01T12:36:10;8.30;49.70
53776;DHT22;44276;49.534;6.378;2023-02-01T12:38:58;8.10;49.90
53776;DHT22;44276;49.534;6.378;2023-02-01T12:41:49;8.00;53.40
53776;DHT22;44276;49.534;6.378;2023-02-01T12:44:32;8.20;52.70
53776;DHT22;44276;49.534;6.378;2023-02-01T12:47:09;8.30;51.10
53776;DHT22;44276;49.534;6.378;2023-02-01T12:49:49;8.20;54.80
53776;DHT22;44276;49.534;6.378;2023-02-01T12:52:35;8.50;52.30
53776;DHT22;44276;49.534;6.378;2023-02-01T12:55:17;8.80;47.30
53776;DHT22;44276;49.534;6.378;2023-02-01T12:57:53;9.00;46.10
53776;DHT22;44276;49.534;6.378;2023-02-01T13:00:29;8.70;45.90
53776;DHT22;44276;49.534;6.378;2023-02-01T13:03:09;8.80;45.90
53776;DHT22;44276;49.534;6.378;2023-02-01T13:05:51;9.00;44.50
53776;DHT22;44276;49.534;6.378;2023-02-01T13:08:31;9.10;44.90
53776;DHT22;44276;49.534;6.378;2023-02-01T13:11:13;9.30;43.30
53776;DHT22;44276;49.534;6.378;2023-02-01T13:13:52;9.60;43.60
53776;DHT22;44276;49.534;6.378;2023-02-01T13:16:28;9.60;41.20
53776;DHT22;44276;49.534;6.378;2023-02-01T13:19:05;9.40;40.30
53776;DHT22;44276;49.534;6.378;2023-02-01T13:21:45;9.40;42.30
53776;DHT22;44276;49.534;6.378;2023-02-01T13:24:33;9.10;41.00
53776;DHT22;44276;49.534;6.378;2023-02-01T13:27:10;8.80;45.90
53776;DHT22;44276;49.534;6.378;2023-02-01T13:29:46;8.70;45.40
53776;DHT22;44276;49.534;6.378;2023-02-01T13:32:44;8.70;46.50
53776;DHT22;44276;49.534;6.378;2023-02-01T13:36:03;8.70;44.90
53776;DHT22;44276;49.534;6.378;2023-02-01T13:42:15;8.90;40.10
53776;DHT22;44276;49.534;6.378;2023-02-01T13:44:50;8.90;41.70
53776;DHT22;44276;49.534;6.378;2023-02-01T13:47:25;8.90;41.80
53776;DHT22;44276;49.534;6.378;2023-02-01T13:49:58;8.90;42.80
53776;DHT22;44276;49.534;6.378;2023-02-01T13:52:37;9.10;38.60
53776;DHT22;44276;49.534;6.378;2023-02-01T13:55:24;9.10;39.60
53776;DHT22;44276;49.534;6.378;2023-02-01T13:58:06;9.00;40.60
53776;DHT22;44276;49.534;6.378;2023-02-01T14:00:46;8.90;40.60
53776;DHT22;44276;49.534;6.378;2023-02-01T14:03:20;8.80;41.50
53776;DHT22;44276;49.534;6.378;2023-02-01T14:09:21;8.70;39.60
53776;DHT22;44276;49.534;6.378;2023-02-01T14:15:22;8.50;38.70
53776;DHT22;44276;49.534;6.378;2023-02-01T14:17:53;8.50;40.90
53776;DHT22;44276;49.534;6.378;2023-02-01T14:20:43;8.50;39.50
53776;DHT22;44276;49.534;6.378;2023-02-01T14:23:30;8.40;40.00
53776;DHT22;44276;49.534;6.378;2023-02-01T14:26:08;8.40;41.20
53776;DHT22;44276;49.534;6.378;2023-02-01T14:28:43;8.50;40.30
53776;DHT22;44276;49.534;6.378;2023-02-01T14:31:48;8.50;40.60
53776;DHT22;44276;49.534;6.378;2023-02-01T14:34:35;8.60;41.20
53776;DHT22;44276;49.534;6.378;2023-02-01T14:37:12;8.60;42.30
53776;DHT22;44276;49.534;6.378;2023-02-01T14:39:56;8.70;41.30
53776;DHT22;44276;49.534;6.378;2023-02-01T14:42:33;8.70;41.80
53776;DHT22;44276;49.534;6.378;2023-02-01T14:45:49;8.70;42.10
53776;DHT22;44276;49.534;6.378;2023-02-01T14:48:45;8.80;41.10
53776;DHT22;44276;49.534;6.378;2023-02-01T14:51:16;8.90;42.00
53776;DHT22;44276;49.534;6.378;2023-02-01T14:53:47;8.90;39.30
53776;DHT22;44276;49.534;6.378;2023-02-01T14:56:17;8.80;39.50
53776;DHT22;44276;49.534;6.378;2023-02-01T14:58:52;8.80;38.00
53776;DHT22;44276;49.534;6.378;2023-02-01T15:01:27;8.60;40.10
53776;DHT22;44276;49.534;6.378;2023-02-01T15:04:05;8.50;42.00
53776;DHT22;44276;49.534;6.378;2023-02-01T15:06:38;8.60;40.40
53776;DHT22;44276;49.534;6.378;2023-02-01T15:09:10;8.70;41.70
53776;DHT22;44276;49.534;6.378;2023-02-01T15:11:59;8.60;39.90
53776;DHT22;44276;49.534;6.378;2023-02-01T15:14:31;8.60;40.80
53776;DHT22;44276;49.534;6.378;2023-02-01T15:17:01;8.50;40.90
53776;DHT22;44276;49.534;6.378;2023-02-01T15:19:31;8.50;41.80
53776;DHT22;44276;49.534;6.378;2023-02-01T15:22:00;8.40;42.10
53776;DHT22;44276;49.534;6.378;2023-02-01T15:24:30;8.30;44.10
53776;DHT22;44276;49.534;6.378;2023-02-01T15:27:04;8.40;44.60
53776;DHT22;44276;49.534;6.378;2023-02-01T15:29:33;8.40;46.50
53776;DHT22;44276;49.534;6.378;2023-02-01T15:32:02;8.20;48.10
53776;DHT22;44276;49.534;6.378;2023-02-01T15:34:48;8.20;47.60
53776;DHT22;44276;49.534;6.378;2023-02-01T15:37:17;8.20;47.70
53776;DHT22;44276;49.534;6.378;2023-02-01T15:42:55;8.00;51.70
53776;DHT22;44276;49.534;6.378;2023-02-01T15:45:28;7.90;52.80
53776;DHT22;44276;49.534;6.378;2023-02-01T15:47:59;8.00;53.00
53776;DHT22;44276;49.534;6.378;2023-02-01T15:50:30;8.10;54.10
53776;DHT22;44276;49.534;6.378;2023-02-01T15:53:00;8.20;50.60
53776;DHT22;44276;49.534;6.378;2023-02-01T15:55:36;8.00;52.20
53776;DHT22;44276;49.534;6.378;2023-02-01T15:58:15;7.90;52.30
53776;DHT22;44276;49.534;6.378;2023-02-01T16:00:46;7.80;53.50
53776;DHT22;44276;49.534;6.378;2023-02-01T16:03:35;7.70;57.60
53776;DHT22;44276;49.534;6.378;2023-02-01T16:06:09;7.50;60.00
53776;DHT22;44276;49.534;6.378;2023-02-01T16:08:49;7.40;62.30
53776;DHT22;44276;49.534;6.378;2023-02-01T16:11:23;7.30;64.30
53776;DHT22;44276;49.534;6.378;2023-02-01T16:13:57;7.40;64.90
53776;DHT22;44276;49.534;6.378;2023-02-01T16:16:27;7.40;67.70
53776;DHT22;44276;49.534;6.378;2023-02-01T16:18:56;7.40;69.60
53776;DHT22;44276;49.534;6.378;2023-02-01T16:21:26;7.50;68.10
53776;DHT22;44276;49.534;6.378;2023-02-01T16:23:54;7.50;67.90
53776;DHT22;44276;49.534;6.378;2023-02-01T16:26:23;7.50;70.80
53776;DHT22;44276;49.534;6.378;2023-02-01T16:28:51;7.50;70.30
53776;DHT22;44276;49.534;6.378;2023-02-01T16:31:23;7.50;69.60
53776;DHT22;44276;49.534;6.378;2023-02-01T16:33:54;7.50;69.30
53776;DHT22;44276;49.534;6.378;2023-02-01T16:36:25;7.50;71.60
53776;DHT22;44276;49.534;6.378;2023-02-01T16:38:56;7.40;73.30
53776;DHT22;44276;49.534;6.378;2023-02-01T16:41:25;7.40;77.40
53776;DHT22;44276;49.534;6.378;2023-02-01T16:43:55;7.40;76.50
53776;DHT22;44276;49.534;6.378;2023-02-01T16:46:24;7.50;73.60
53776;DHT22;44276;49.534;6.378;2023-02-01T16:48:58;7.50;73.60